Time,TemperatureF,DewpointF,PressureIn,WindDirection,WindDirectionDegrees,WindSpeedMPH,WindSpeedGustMPH,Humidity,HourlyPrecipIn,Conditions,Clouds,dailyrainin,SoftwareType,DateUTC
2013-04-07 00:00:00,59.6,56.0,30.14,NE,43,3.0,3.0,88,0.00,,,0.00,Wunderground v.1.15,2013-04-07 04:00:00,
2013-04-07 00:10:00,59.7,56.5,30.15,NNE,22,4.0,4.0,89,0.00,,,0.00,Wunderground v.1.15,2013-04-07 04:10:00,
2013-04-07 00:20:00,59.8,56.6,30.14,NNE,20,4.0,4.0,89,0.00,,,0.00,Wunderground v.1.15,2013-04-07 04:20:00,
2013-04-07 00:25:00,59.8,56.6,30.15,North,352,3.0,4.0,89,0.00,,,0.00,Wunderground v.1.15,2013-04-07 04:25:00,
2013-04-07 00:30:00,59.7,56.5,30.15,NNE,27,2.0,2.0,89,0.00,,,0.00,Wunderground v.1.15,2013-04-07 04:30:00,
2013-04-07 00:40:00,59.7,56.8,30.15,NNW,348,3.0,3.0,90,0.00,,,0.00,Wunderground v.1.15,2013-04-07 04:40:00,
2013-04-07 00:50:00,59.7,56.8,30.15,NNE,30,2.0,2.0,90,0.00,,,0.00,Wunderground v.1.15,2013-04-07 04:50:00,
2013-04-07 00:55:00,59.6,56.7,30.15,NE,47,2.0,2.0,90,0.00,,,0.00,Wunderground v.1.15,2013-04-07 04:55:00,
2013-04-07 01:05:00,59.1,56.2,30.14,NE,46,1.0,7.0,90,0.00,,,0.00,Wunderground v.1.15,2013-04-07 05:05:00,
2013-04-07 01:10:00,58.9,56.0,30.14,NE,49,1.0,1.0,90,0.00,,,0.00,Wunderground v.1.15,2013-04-07 05:10:00,
2013-04-07 01:20:00,58.8,56.2,30.14,ENE,58,1.0,7.0,91,0.00,,,0.00,Wunderground v.1.15,2013-04-07 05:20:00,
2013-04-07 01:30:00,58.6,56.0,30.14,ENE,73,0.0,1.0,91,0.00,,,0.00,Wunderground v.1.15,2013-04-07 05:30:00,
2013-04-07 01:40:00,58.0,55.4,30.13,East,80,0.0,0.0,91,0.00,,,0.00,Wunderground v.1.15,2013-04-07 05:40:00,
2013-04-07 01:50:00,57.4,55.1,30.11,East,82,0.0,0.0,92,0.00,,,0.00,Wunderground v.1.15,2013-04-07 05:50:00,
2013-04-07 02:00:00,57.4,55.4,30.10,ENE,66,0.0,1.0,93,0.00,,,0.00,Wunderground v.1.15,2013-04-07 06:00:00,
2013-04-07 02:05:00,57.6,55.6,30.10,East,80,1.0,5.0,93,0.00,,,0.00,Wunderground v.1.15,2013-04-07 06:05:00,
2013-04-07 02:15:00,57.5,55.5,30.11,East,81,0.0,5.0,93,0.00,,,0.00,Wunderground v.1.15,2013-04-07 06:15:00,
2013-04-07 02:25:00,56.7,54.7,30.10,East,80,0.0,5.0,93,0.00,,,0.00,Wunderground v.1.15,2013-04-07 06:25:00,
2013-04-07 02:35:00,56.6,54.9,30.11,East,80,0.0,0.0,94,0.00,,,0.00,Wunderground v.1.15,2013-04-07 06:35:00,
2013-04-07 02:45:00,56.4,54.7,30.10,East,80,0.0,0.0,94,0.00,,,0.00,Wunderground v.1.15,2013-04-07 06:45:00,
2013-04-07 02:55:00,55.8,54.1,30.11,East,80,0.0,0.0,94,0.00,,,0.00,Wunderground v.1.15,2013-04-07 06:55:00,
2013-04-07 03:05:00,55.6,53.9,30.09,East,80,0.0,3.0,94,0.00,,,0.00,Wunderground v.1.15,2013-04-07 07:05:00,
2013-04-07 03:15:00,55.7,54.3,30.09,East,79,0.0,3.0,95,0.00,,,0.00,Wunderground v.1.15,2013-04-07 07:15:00,
2013-04-07 03:25:00,55.9,54.5,30.08,East,79,0.0,3.0,95,0.00,,,0.00,Wunderground v.1.15,2013-04-07 07:25:00,
2013-04-07 03:35:00,55.8,54.4,30.09,East,79,0.0,0.0,95,0.00,,,0.00,Wunderground v.1.15,2013-04-07 07:35:00,
2013-04-07 03:40:00,55.7,54.3,30.09,East,79,0.0,0.0,95,0.00,,,0.00,Wunderground v.1.15,2013-04-07 07:40:00,
2013-04-07 03:55:00,54.6,53.2,30.08,East,79,0.0,0.0,95,0.00,,,0.00,Wunderground v.1.15,2013-04-07 07:55:00,
2013-04-07 04:05:00,54.8,53.7,30.09,East,79,0.0,0.0,96,0.00,,,0.00,Wunderground v.1.15,2013-04-07 08:05:00,
2013-04-07 04:15:00,54.5,53.1,30.09,East,79,0.0,0.0,95,0.00,,,0.00,Wunderground v.1.15,2013-04-07 08:15:00,
2013-04-07 04:25:00,53.5,52.1,30.09,East,79,0.0,0.0,95,0.00,,,0.00,Wunderground v.1.15,2013-04-07 08:25:00,
2013-04-07 04:35:00,53.4,52.0,30.09,East,79,0.0,0.0,95,0.00,,,0.00,Wunderground v.1.15,2013-04-07 08:35:00,
2013-04-07 04:40:00,53.3,51.9,30.09,East,79,0.0,0.0,95,0.00,,,0.00,Wunderground v.1.15,2013-04-07 08:40:00,
2013-04-07 04:50:00,53.3,52.2,30.09,East,79,0.0,0.0,96,0.00,,,0.00,Wunderground v.1.15,2013-04-07 08:50:00,
2013-04-07 05:00:00,54.5,53.7,30.10,East,79,0.0,0.0,97,0.00,,,0.00,Wunderground v.1.15,2013-04-07 09:00:00,
2013-04-07 05:10:00,56.4,55.6,30.10,NE,44,0.0,0.0,97,0.00,,,0.00,Wunderground v.1.15,2013-04-07 09:10:00,
2013-04-07 05:20:00,56.0,54.9,30.11,NE,44,0.0,0.0,96,0.00,,,0.00,Wunderground v.1.15,2013-04-07 09:20:00,
2013-04-07 05:30:00,55.5,54.4,30.11,NE,44,0.0,0.0,96,0.00,,,0.00,Wunderground v.1.15,2013-04-07 09:30:00,
2013-04-07 05:35:00,54.9,53.5,30.11,NE,44,0.0,0.0,95,0.00,,,0.00,Wunderground v.1.15,2013-04-07 09:35:00,
2013-04-07 05:45:00,54.5,53.4,30.11,NE,44,0.0,0.0,96,0.00,,,0.00,Wunderground v.1.15,2013-04-07 09:45:00,
2013-04-07 05:55:00,54.3,53.2,30.11,NE,44,0.0,0.0,96,0.00,,,0.00,Wunderground v.1.15,2013-04-07 09:55:00,
2013-04-07 06:00:00,54.2,53.1,30.11,NE,44,0.0,0.0,96,0.00,,,0.00,Wunderground v.1.15,2013-04-07 10:00:00,
2013-04-07 06:10:00,53.5,52.4,30.11,NE,44,0.0,0.0,96,0.00,,,0.00,Wunderground v.1.15,2013-04-07 10:10:00,
2013-04-07 06:20:00,53.7,52.9,30.12,NE,44,0.0,0.0,97,0.00,,,0.00,Wunderground v.1.15,2013-04-07 10:20:00,
2013-04-07 06:25:00,53.2,52.1,30.12,NE,44,0.0,0.0,96,0.00,,,0.00,Wunderground v.1.15,2013-04-07 10:25:00,
2013-04-07 06:35:00,52.4,51.3,30.12,NE,44,0.0,0.0,96,0.00,,,0.00,Wunderground v.1.15,2013-04-07 10:35:00,
2013-04-07 06:45:00,52.8,52.0,30.13,NE,44,0.0,0.0,97,0.00,,,0.00,Wunderground v.1.15,2013-04-07 10:45:00,
2013-04-07 06:55:00,52.1,51.0,30.13,NE,44,0.0,0.0,96,0.00,,,0.00,Wunderground v.1.15,2013-04-07 10:55:00,
2013-04-07 07:05:00,51.6,50.5,30.14,NE,44,0.0,0.0,96,0.00,,,0.00,Wunderground v.1.15,2013-04-07 11:05:00,
2013-04-07 07:15:00,50.9,49.8,30.14,NE,44,0.0,0.0,96,0.00,,,0.00,Wunderground v.1.15,2013-04-07 11:15:00,
2013-04-07 07:25:00,51.4,50.6,30.14,NE,44,0.0,0.0,97,0.00,,,0.00,Wunderground v.1.15,2013-04-07 11:25:00,
2013-04-07 07:35:00,52.0,51.2,30.14,NE,44,0.0,0.0,97,0.00,,,0.00,Wunderground v.1.15,2013-04-07 11:35:00,
2013-04-07 07:40:00,52.3,51.5,30.15,NE,44,0.0,0.0,97,0.00,,,0.00,Wunderground v.1.15,2013-04-07 11:40:00,
2013-04-07 07:55:00,56.7,55.9,30.15,NE,44,0.0,0.0,97,0.00,,,0.00,Wunderground v.1.15,2013-04-07 11:55:00,
2013-04-07 08:00:00,58.1,57.3,30.15,NE,44,0.0,0.0,97,0.00,,,0.00,Wunderground v.1.15,2013-04-07 12:00:00,
2013-04-07 08:10:00,60.0,59.4,30.16,NE,44,0.0,0.0,98,0.00,,,0.00,Wunderground v.1.15,2013-04-07 12:10:00,
2013-04-07 08:20:00,60.4,59.5,30.16,NE,44,0.0,0.0,97,0.00,,,0.00,Wunderground v.1.15,2013-04-07 12:20:00,
2013-04-07 08:25:00,60.6,59.5,30.16,ENE,75,0.0,0.0,96,0.00,,,0.00,Wunderground v.1.15,2013-04-07 12:25:00,
2013-04-07 08:35:00,62.2,61.0,30.17,NE,55,1.0,2.0,96,0.00,,,0.00,Wunderground v.1.15,2013-04-07 12:35:00,
2013-04-07 08:40:00,62.8,61.3,30.17,NE,44,1.0,2.0,95,0.00,,,0.00,Wunderground v.1.15,2013-04-07 12:40:00,
2013-04-07 08:50:00,64.0,61.9,30.17,ENE,58,1.0,1.0,93,0.00,,,0.00,Wunderground v.1.15,2013-04-07 12:50:00,
2013-04-07 09:00:00,65.2,62.5,30.17,ENE,69,2.0,2.0,91,0.00,,,0.00,Wunderground v.1.15,2013-04-07 13:00:00,
2013-04-07 09:05:00,65.9,62.6,30.18,NE,38,3.0,4.0,89,0.00,,,0.00,Wunderground v.1.15,2013-04-07 13:05:00,
2013-04-07 09:15:00,66.7,62.4,30.17,East,93,3.0,3.0,86,0.00,,,0.00,Wunderground v.1.15,2013-04-07 13:15:00,
2013-04-07 09:20:00,66.6,61.9,30.17,East,94,3.0,3.0,85,0.00,,,0.00,Wunderground v.1.15,2013-04-07 13:20:00,
2013-04-07 09:30:00,68.0,63.0,30.18,ENE,58,2.0,3.0,84,0.00,,,0.00,Wunderground v.1.15,2013-04-07 13:30:00,
2013-04-07 09:40:00,68.1,62.0,30.18,ENE,59,3.0,3.0,81,0.00,,,0.00,Wunderground v.1.15,2013-04-07 13:40:00,
2013-04-07 09:50:00,70.4,63.2,30.18,East,96,3.0,5.0,78,0.00,,,0.00,Wunderground v.1.15,2013-04-07 13:50:00,
2013-04-07 10:00:00,72.4,62.5,30.18,ESE,104,5.0,8.0,71,0.00,,,0.00,Wunderground v.1.15,2013-04-07 14:00:00,
2013-04-07 10:10:00,73.3,61.3,30.18,ESE,108,7.0,7.0,66,0.00,,,0.00,Wunderground v.1.15,2013-04-07 14:10:00,
2013-04-07 10:20:00,73.4,60.0,30.18,ESE,106,8.0,8.0,63,0.00,,,0.00,Wunderground v.1.15,2013-04-07 14:20:00,
2013-04-07 10:30:00,73.9,60.5,30.18,ENE,62,7.0,7.0,63,0.00,,,0.00,Wunderground v.1.15,2013-04-07 14:30:00,
2013-04-07 10:40:00,74.4,60.1,30.18,ESE,123,8.0,9.0,61,0.00,,,0.00,Wunderground v.1.15,2013-04-07 14:40:00,
2013-04-07 10:50:00,75.0,60.2,30.18,ESE,114,8.0,8.0,60,0.00,,,0.00,Wunderground v.1.15,2013-04-07 14:50:00,
2013-04-07 11:00:00,75.9,61.0,30.18,ESE,103,7.0,7.0,60,0.00,,,0.00,Wunderground v.1.15,2013-04-07 15:00:00,
2013-04-07 11:05:00,76.2,60.8,30.19,ESE,111,7.0,11.0,59,0.00,,,0.00,Wunderground v.1.15,2013-04-07 15:05:00,
2013-04-07 11:15:00,76.4,61.5,30.19,ESE,105,6.0,11.0,60,0.00,,,0.00,Wunderground v.1.15,2013-04-07 15:15:00,
2013-04-07 11:25:00,76.8,60.9,30.19,ESE,120,7.0,7.0,58,0.00,,,0.00,Wunderground v.1.15,2013-04-07 15:25:00,
2013-04-07 11:35:00,76.2,60.3,30.19,East,84,6.0,7.0,58,0.00,,,0.00,Wunderground v.1.15,2013-04-07 15:35:00,
2013-04-07 11:45:00,76.7,59.8,30.19,ESE,116,6.0,7.0,56,0.00,,,0.00,Wunderground v.1.15,2013-04-07 15:45:00,
2013-04-07 11:55:00,76.1,59.8,30.19,East,85,5.0,5.0,57,0.00,,,0.00,Wunderground v.1.15,2013-04-07 15:55:00,
2013-04-07 12:00:00,75.7,59.9,30.19,East,96,4.0,5.0,58,0.00,,,0.00,Wunderground v.1.15,2013-04-07 16:00:00,
2013-04-07 12:05:00,75.1,58.3,30.19,ESE,122,4.0,14.0,56,0.00,,,0.00,Wunderground v.1.15,2013-04-07 16:05:00,
2013-04-07 12:10:00,74.9,59.1,30.18,ENE,77,3.0,3.0,58,0.00,,,0.00,Wunderground v.1.15,2013-04-07 16:10:00,
2013-04-07 12:15:00,75.3,58.5,30.18,East,85,3.0,14.0,56,0.00,,,0.00,Wunderground v.1.15,2013-04-07 16:15:00,
2013-04-07 12:25:00,77.8,59.3,30.18,ENE,72,4.0,14.0,53,0.00,,,0.00,Wunderground v.1.15,2013-04-07 16:25:00,
2013-04-07 12:30:00,77.8,59.8,30.18,ESE,107,5.0,8.0,54,0.00,,,0.00,Wunderground v.1.15,2013-04-07 16:30:00,
2013-04-07 12:35:00,77.6,58.6,30.18,East,84,6.0,8.0,52,0.00,,,0.00,Wunderground v.1.15,2013-04-07 16:35:00,
2013-04-07 12:45:00,76.8,57.8,30.18,SE,125,4.0,5.0,52,0.00,,,0.00,Wunderground v.1.15,2013-04-07 16:45:00,
2013-04-07 12:55:00,77.3,57.8,30.17,ENE,72,1.0,2.0,51,0.00,,,0.00,Wunderground v.1.15,2013-04-07 16:55:00,
2013-04-07 13:00:00,77.5,57.9,30.17,SE,128,2.0,3.0,51,0.00,,,0.00,Wunderground v.1.15,2013-04-07 17:00:00,
2013-04-07 13:05:00,77.1,57.6,30.16,ESE,122,3.0,9.0,51,0.00,,,0.00,Wunderground v.1.15,2013-04-07 17:05:00,
2013-04-07 13:15:00,78.1,56.2,30.16,East,93,3.0,9.0,47,0.00,,,0.00,Wunderground v.1.15,2013-04-07 17:15:00,
2013-04-07 13:25:00,79.8,56.6,30.15,South,170,3.0,9.0,45,0.00,,,0.00,Wunderground v.1.15,2013-04-07 17:25:00,
2013-04-07 13:30:00,81.2,57.2,30.15,SE,132,3.0,4.0,44,0.00,,,0.00,Wunderground v.1.15,2013-04-07 17:30:00,
2013-04-07 13:40:00,79.6,53.8,30.15,East,91,4.0,4.0,41,0.00,,,0.00,Wunderground v.1.15,2013-04-07 17:40:00,
2013-04-07 13:45:00,79.1,54.0,30.15,WSW,240,2.0,4.0,42,0.00,,,0.00,Wunderground v.1.15,2013-04-07 17:45:00,
2013-04-07 13:55:00,79.1,55.3,30.14,East,98,1.0,3.0,44,0.00,,,0.00,Wunderground v.1.15,2013-04-07 17:55:00,
2013-04-07 14:05:00,81.1,54.5,30.14,ESE,119,2.0,3.0,40,0.00,,,0.00,Wunderground v.1.15,2013-04-07 18:05:00,
2013-04-07 14:15:00,79.8,53.3,30.14,East,82,4.0,8.0,40,0.00,,,0.00,Wunderground v.1.15,2013-04-07 18:15:00,
2013-04-07 14:20:00,79.8,52.6,30.13,NE,40,2.0,8.0,39,0.00,,,0.00,Wunderground v.1.15,2013-04-07 18:20:00,
2013-04-07 14:30:00,80.8,54.2,30.13,SE,135,2.0,5.0,40,0.00,,,0.00,Wunderground v.1.15,2013-04-07 18:30:00,
2013-04-07 14:35:00,80.0,54.2,30.13,ENE,74,2.0,5.0,41,0.00,,,0.00,Wunderground v.1.15,2013-04-07 18:35:00,
2013-04-07 14:40:00,79.3,52.9,30.13,ENE,73,3.0,3.0,40,0.00,,,0.00,Wunderground v.1.15,2013-04-07 18:40:00,
2013-04-07 14:50:00,79.0,53.3,30.13,WSW,242,2.0,2.0,41,0.00,,,0.00,Wunderground v.1.15,2013-04-07 18:50:00,
2013-04-07 14:55:00,80.3,53.8,30.12,SE,127,2.0,5.0,40,0.00,,,0.00,Wunderground v.1.15,2013-04-07 18:55:00,
2013-04-07 15:05:00,82.9,54.7,30.12,SE,127,3.0,5.0,38,0.00,,,0.00,Wunderground v.1.15,2013-04-07 19:05:00,
2013-04-07 15:15:00,83.6,55.3,30.11,ESE,110,5.0,8.0,38,0.00,,,0.00,Wunderground v.1.15,2013-04-07 19:15:00,
2013-04-07 15:20:00,83.2,55.7,30.11,SE,140,5.0,8.0,39,0.00,,,0.00,Wunderground v.1.15,2013-04-07 19:20:00,
2013-04-07 15:30:00,81.5,55.5,30.11,NE,51,3.0,3.0,41,0.00,,,0.00,Wunderground v.1.15,2013-04-07 19:30:00,
2013-04-07 15:40:00,80.1,54.3,30.11,ENE,71,3.0,3.0,41,0.00,,,0.00,Wunderground v.1.15,2013-04-07 19:40:00,
2013-04-07 15:50:00,79.6,53.8,30.11,ENE,58,3.0,3.0,41,0.00,,,0.00,Wunderground v.1.15,2013-04-07 19:50:00,
2013-04-07 15:55:00,80.0,55.5,30.11,SSE,152,3.0,3.0,43,0.00,,,0.00,Wunderground v.1.15,2013-04-07 19:55:00,
2013-04-07 16:00:00,80.8,54.9,30.11,SE,125,2.0,2.0,41,0.00,,,0.00,Wunderground v.1.15,2013-04-07 20:00:00,
2013-04-07 16:10:00,82.2,54.8,30.10,East,94,3.0,10.0,39,0.00,,,0.00,Wunderground v.1.15,2013-04-07 20:10:00,
2013-04-07 16:20:00,81.3,54.0,30.10,SE,139,3.0,3.0,39,0.00,,,0.00,Wunderground v.1.15,2013-04-07 20:20:00,
2013-04-07 16:30:00,80.3,55.8,30.10,East,83,4.0,5.0,43,0.00,,,0.00,Wunderground v.1.15,2013-04-07 20:30:00,
2013-04-07 16:35:00,79.8,55.9,30.10,NE,36,4.0,6.0,44,0.00,,,0.00,Wunderground v.1.15,2013-04-07 20:35:00,
2013-04-07 16:45:00,80.9,55.7,30.09,East,86,5.0,6.0,42,0.00,,,0.00,Wunderground v.1.15,2013-04-07 20:45:00,
2013-04-07 16:50:00,80.7,55.5,30.10,ESE,105,5.0,5.0,42,0.00,,,0.00,Wunderground v.1.15,2013-04-07 20:50:00,
2013-04-07 16:55:00,80.3,55.8,30.09,ESE,104,4.0,5.0,43,0.00,,,0.00,Wunderground v.1.15,2013-04-07 20:55:00,
2013-04-07 17:05:00,80.0,55.5,30.10,ESE,105,3.0,10.0,43,0.00,,,0.00,Wunderground v.1.15,2013-04-07 21:05:00,
2013-04-07 17:10:00,79.6,57.0,30.10,ENE,66,3.0,3.0,46,0.00,,,0.00,Wunderground v.1.15,2013-04-07 21:10:00,
2013-04-07 17:20:00,78.7,55.6,30.09,East,81,4.0,4.0,45,0.00,,,0.00,Wunderground v.1.15,2013-04-07 21:20:00,
2013-04-07 17:30:00,78.4,55.9,30.09,ENE,69,3.0,3.0,46,0.00,,,0.00,Wunderground v.1.15,2013-04-07 21:30:00,
2013-04-07 17:40:00,78.4,55.9,30.09,NE,51,3.0,5.0,46,0.00,,,0.00,Wunderground v.1.15,2013-04-07 21:40:00,
2013-04-07 17:50:00,78.7,56.2,30.09,ENE,68,4.0,4.0,46,0.00,,,0.00,Wunderground v.1.15,2013-04-07 21:50:00,
2013-04-07 17:55:00,78.6,56.1,30.08,ENE,68,4.0,5.0,46,0.00,,,0.00,Wunderground v.1.15,2013-04-07 21:55:00,
2013-04-07 18:05:00,79.2,56.6,30.08,East,92,4.0,10.0,46,0.00,,,0.00,Wunderground v.1.15,2013-04-07 22:05:00,
2013-04-07 18:10:00,79.0,56.5,30.08,ESE,102,5.0,10.0,46,0.00,,,0.00,Wunderground v.1.15,2013-04-07 22:10:00,
2013-04-07 18:20:00,78.3,56.4,30.08,ESE,115,5.0,10.0,47,0.00,,,0.00,Wunderground v.1.15,2013-04-07 22:20:00,
2013-04-07 18:25:00,78.6,57.3,30.08,ENE,77,5.0,10.0,48,0.00,,,0.00,Wunderground v.1.15,2013-04-07 22:25:00,
2013-04-07 18:35:00,78.2,56.9,30.09,ESE,113,5.0,6.0,48,0.00,,,0.00,Wunderground v.1.15,2013-04-07 22:35:00,
2013-04-07 18:40:00,77.7,57.0,30.09,East,92,5.0,7.0,49,0.00,,,0.00,Wunderground v.1.15,2013-04-07 22:40:00,
2013-04-07 18:45:00,77.3,57.2,30.09,ENE,78,6.0,7.0,50,0.00,,,0.00,Wunderground v.1.15,2013-04-07 22:45:00,
2013-04-07 18:50:00,76.7,57.2,30.09,ENE,76,7.0,7.0,51,0.00,,,0.00,Wunderground v.1.15,2013-04-07 22:50:00,
2013-04-07 19:00:00,75.5,57.7,30.09,ENE,77,7.0,10.0,54,0.00,,,0.00,Wunderground v.1.15,2013-04-07 23:00:00,
2013-04-07 19:10:00,74.7,58.0,30.09,ENE,70,7.0,8.0,56,0.00,,,0.00,Wunderground v.1.15,2013-04-07 23:10:00,
2013-04-07 19:15:00,74.3,58.1,30.09,East,86,7.0,8.0,57,0.00,,,0.00,Wunderground v.1.15,2013-04-07 23:15:00,
2013-04-07 19:25:00,73.6,58.9,30.09,ENE,72,6.0,7.0,60,0.00,,,0.00,Wunderground v.1.15,2013-04-07 23:25:00,
2013-04-07 19:35:00,73.0,58.8,30.09,ENE,72,6.0,7.0,61,0.00,,,0.00,Wunderground v.1.15,2013-04-07 23:35:00,
2013-04-07 19:45:00,72.4,58.6,30.09,ENE,65,7.0,7.0,62,0.00,,,0.00,Wunderground v.1.15,2013-04-07 23:45:00,
2013-04-07 19:55:00,71.6,58.8,30.10,ENE,68,5.0,6.0,64,0.00,,,0.00,Wunderground v.1.15,2013-04-07 23:55:00,
2013-04-07 20:00:00,71.2,58.4,30.10,East,79,5.0,6.0,64,0.00,,,0.00,Wunderground v.1.15,2013-04-08 00:00:00,
2013-04-07 20:10:00,70.6,58.3,30.10,East,82,6.0,13.0,65,0.00,,,0.00,Wunderground v.1.15,2013-04-08 00:10:00,
2013-04-07 20:15:00,70.3,58.4,30.10,East,83,5.0,13.0,66,0.00,,,0.00,Wunderground v.1.15,2013-04-08 00:15:00,
2013-04-07 20:25:00,69.8,58.3,30.10,ENE,70,5.0,8.0,67,0.00,,,0.00,Wunderground v.1.15,2013-04-08 00:25:00,
2013-04-07 20:30:00,69.7,58.7,30.10,ENE,69,5.0,5.0,68,0.00,,,0.00,Wunderground v.1.15,2013-04-08 00:30:00,
2013-04-07 20:40:00,69.3,58.3,30.10,East,95,5.0,5.0,68,0.00,,,0.00,Wunderground v.1.15,2013-04-08 00:40:00,
2013-04-07 20:45:00,69.1,58.5,30.11,ENE,70,5.0,5.0,69,0.00,,,0.00,Wunderground v.1.15,2013-04-08 00:45:00,
2013-04-07 20:55:00,68.6,58.4,30.11,ENE,75,5.0,7.0,70,0.00,,,0.00,Wunderground v.1.15,2013-04-08 00:55:00,
2013-04-07 21:00:00,68.4,58.6,30.11,East,82,5.0,6.0,71,0.00,,,0.00,Wunderground v.1.15,2013-04-08 01:00:00,
2013-04-07 21:05:00,68.3,58.5,30.11,ENE,71,5.0,12.0,71,0.00,,,0.00,Wunderground v.1.15,2013-04-08 01:05:00,
2013-04-07 21:10:00,67.9,58.5,30.11,ENE,66,4.0,12.0,72,0.00,,,0.00,Wunderground v.1.15,2013-04-08 01:10:00,
2013-04-07 21:20:00,67.6,58.6,30.12,ENE,75,4.0,12.0,73,0.00,,,0.00,Wunderground v.1.15,2013-04-08 01:20:00,
2013-04-07 21:30:00,67.5,58.9,30.12,NE,49,4.0,4.0,74,0.00,,,0.00,Wunderground v.1.15,2013-04-08 01:30:00,
2013-04-07 21:40:00,67.3,59.1,30.13,ENE,60,4.0,4.0,75,0.00,,,0.00,Wunderground v.1.15,2013-04-08 01:40:00,
2013-04-07 21:45:00,67.2,59.0,30.13,East,86,3.0,4.0,75,0.00,,,0.00,Wunderground v.1.15,2013-04-08 01:45:00,
2013-04-07 21:50:00,67.1,59.3,30.13,ENE,77,4.0,4.0,76,0.00,,,0.00,Wunderground v.1.15,2013-04-08 01:50:00,
2013-04-07 22:00:00,67.2,59.0,30.13,ENE,60,4.0,4.0,75,0.00,,,0.00,Wunderground v.1.15,2013-04-08 02:00:00,
2013-04-07 22:10:00,66.8,58.6,30.14,East,95,4.0,4.0,75,0.00,,,0.00,Wunderground v.1.15,2013-04-08 02:10:00,
2013-04-07 22:20:00,66.5,58.7,30.14,ENE,64,3.0,3.0,76,0.00,,,0.00,Wunderground v.1.15,2013-04-08 02:20:00,
2013-04-07 22:30:00,66.1,58.7,30.13,East,85,2.0,2.0,77,0.00,,,0.00,Wunderground v.1.15,2013-04-08 02:30:00,
2013-04-07 22:40:00,65.6,58.6,30.14,ENE,76,2.0,2.0,78,0.00,,,0.00,Wunderground v.1.15,2013-04-08 02:40:00,
2013-04-07 22:50:00,64.9,58.6,30.14,East,79,1.0,1.0,80,0.00,,,0.00,Wunderground v.1.15,2013-04-08 02:50:00,
2013-04-07 22:55:00,64.7,58.7,30.14,East,86,1.0,1.0,81,0.00,,,0.00,Wunderground v.1.15,2013-04-08 02:55:00,
2013-04-07 23:00:00,64.4,58.4,30.14,ESE,111,0.0,0.0,81,0.00,,,0.00,Wunderground v.1.15,2013-04-08 03:00:00,
2013-04-07 23:10:00,63.4,57.8,30.14,ESE,114,0.0,7.0,82,0.00,,,0.00,Wunderground v.1.15,2013-04-08 03:10:00,
2013-04-07 23:20:00,62.8,57.6,30.15,ESE,108,0.0,7.0,83,0.00,,,0.00,Wunderground v.1.15,2013-04-08 03:20:00,
2013-04-07 23:30:00,62.1,57.5,30.14,ESE,108,0.0,0.0,85,0.00,,,0.00,Wunderground v.1.15,2013-04-08 03:30:00,
2013-04-07 23:35:00,61.7,57.1,30.15,ESE,108,0.0,0.0,85,0.00,,,0.00,Wunderground v.1.15,2013-04-08 03:35:00,
2013-04-07 23:45:00,60.6,56.7,30.15,ESE,107,0.0,0.0,87,0.00,,,0.00,Wunderground v.1.15,2013-04-08 03:45:00,
2013-04-07 23:55:00,60.1,56.5,30.14,ESE,107,0.0,0.0,88,0.00,,,0.00,Wunderground v.1.15,2013-04-08 03:55:00,